don't click here

Sonic Adventure (DX): Boss Rankings

Records: Times | Rings | Scores | Races | Bosses | Freestyle
Leaders: Times | Rings | Scores | Races | Bosses | Freestyle | Overall
Rank Player Percent Points Date
1 Sonicspeedruner 98.0% 46 09-23-22
2 Gamepro011 95.4% 106 09-23-22
3 Niczur 95.0% 117 09-23-22
4 chainchump 93.2% 160 09-23-22
5 DarkPolarNight 92.4% 177 09-23-22
6 Austinf 89.9% 236 09-23-22
7 drminus 87.8% 286 09-23-22
8 Jawzun 87.4% 295 09-23-22
9 Nim 86.4% 319 09-23-22
10 ethmar 85.4% 343 09-23-22
11 Parax 85.1% 349 09-23-22
12 ike6252 84.1% 374 09-23-22
13 Coolfansonic 82.7% 406 09-23-22
14 Avento128bits 82.4% 413 09-23-22
15 Dashjump 82.1% 419 09-23-22
16 TheRealShadnic 79.4% 484 09-23-22
17 DarkspinesSonic 78.0% 517 09-23-22
18 THC98 76.0% 564 09-23-22
19 F-Man 74.5% 599 09-23-22
20 Marth 73.4% 625 09-23-22
21 Mariobutch 72.1% 655 09-23-22
22 yoshifan 71.0% 681 09-23-22
23 Dekuboy 70.4% 695 09-23-22
23 InferSaime 70.4% 695 09-23-22
25 PfoSonic 69.8% 709 09-23-22
26 HyperSonic7701 67.8% 756 09-23-22
27 RPGnutter 67.1% 774 09-23-22
28 Paragod 65.7% 807 09-23-22
29 mike89 65.1% 820 09-23-22
30 frankoredstrato 64.8% 826 09-23-22
31 sonicam 60.9% 918 09-23-22
32 SadisticMystic 60.6% 926 09-23-22
33 Groudon199 60.5% 928 09-23-22
34 Stefan 59.1% 962 09-23-22
35 Diamond 57.5% 1000 09-23-22
36 Combo 55.8% 1038 09-23-22
37 bertin 55.2% 1052 09-23-22
38 CoEmpathy 54.7% 1065 09-23-22
39 SkyLights 52.7% 1111 09-23-22
40 xXMegaManXx 52.3% 1121 09-23-22
41 SPVLABS 47.8% 1227 09-23-22
42 Fr3nZy 47.3% 1239 09-23-22
43 francisco 47.3% 1240 09-23-22
44 Arch 47.0% 1245 09-23-22
45 Andrea Ritsu 44.7% 1299 09-23-22
46 OmegaDJ 44.5% 1305 09-23-22
47 Omega Rafael Santos 43.7% 1324 09-23-22
48 P1 Pause 42.3% 1356 09-23-22
49 magnum12 40.0% 1410 09-23-22
50 VeritasDL 39.8% 1416 09-23-22
51 Cyan Ryan 38.2% 1453 09-23-22
52 Zurggriff 36.8% 1486 09-23-22
53 Auriman1 36.2% 1500 09-23-22
54 chaos shadow 34.5% 1541 09-23-22
55 James_Bertolli 34.2% 1548 09-23-22
56 Hunters13 34.1% 1549 09-23-22
57 Psymar 32.4% 1589 09-23-22
58 teamblackarms 32.3% 1591 09-23-22
59 Drakodan 32.0% 1599 09-23-22
59 FuzZerd 32.0% 1599 09-23-22
61 Quartz 30.2% 1642 09-23-22
62 eggFL 29.9% 1649 09-23-22
63 Jerzia 29.8% 1651 09-23-22
64 GerbilSoft 29.5% 1657 09-23-22
65 BigAL49 29.2% 1664 09-23-22
66 elecmouse101 28.7% 1676 09-23-22
67 Webber3000 28.3% 1685 09-23-22
68 Thorn 28.1% 1691 09-23-22
69 videogamemaster777 27.8% 1697 09-23-22
70 Mo Player Banned 27.4% 1706 09-23-22
71 Turbos 26.6% 1727 09-23-22
72 Termon 26.5% 1729 09-23-22
73 Flying Fox 25.0% 1763 09-23-22
74 Dave Cramer 24.9% 1767 09-23-22
75 buddychaos0415 23.5% 1800 09-23-22
76 nuckrieg 23.4% 1801 09-23-22
77 AlphaDolphin 22.9% 1814 09-23-22
78 Shadow Jacky 22.5% 1822 09-23-22
79 N 20.7% 1864 09-23-22
80 Cream147 20.3% 1875 09-23-22
81 supersonicfan 20.1% 1878 09-23-22
82 thewaytodawnnn 19.8% 1885 09-23-22
83 NintenDan 19.7% 1888 09-23-22
84 itsPersonnal 19.5% 1892 09-23-22
85 MiStEr_ShAoLiN 19.5% 1894 09-23-22
86 Aitamen 19.3% 1898 09-23-22
87 SonicWinDX 19.0% 1905 09-23-22
88 Cybrax 18.9% 1907 09-23-22
89 supersonic465 18.8% 1909 09-23-22
90 The T 18.7% 1911 09-23-22
91 Cruizer 17.7% 1935 09-23-22
92 R3FR4G 17.2% 1947 09-23-22
93 Game_Complete 16.9% 1955 09-23-22
94 VMU Player Banned 16.7% 1959 09-23-22
95 Mastakirby 16.3% 1968 09-23-22
96 The Great Lord Mick 15.8% 1981 09-23-22
97 Questionguy555 15.0% 1998 09-23-22
98 GreatStar 14.8% 2004 09-23-22
99 Badlex727 14.6% 2008 09-23-22
100 Spinballwizard 14.6% 2009 09-23-22
101 Destroyer121121 13.4% 2037 09-23-22
102 Sondow 13.3% 2038 09-23-22
103 sonicandamy 13.3% 2039 09-23-22
104 GarnetPrincess 12.6% 2055 09-23-22
105 SonicAD 11.8% 2073 09-23-22
106 Don 10.8% 2097 09-23-22
107 Miles9999 10.6% 2102 09-23-22
108 SuperBlitzCraig 10.5% 2104 09-23-22
109 Siavash Tazari 10.2% 2112 09-23-22
110 Psyknux 9.5% 2128 09-23-22
111 Cutiefox 9.4% 2131 09-23-22
112 Werey 9.3% 2133 09-23-22
113 joecoolgames 9.1% 2138 09-23-22
114 knuckles_sonic8 9.0% 2139 09-23-22
115 mauserman 8.9% 2143 09-23-22
116 EngiNerd 8.4% 2153 09-23-22
117 Sonic Singularity 8.4% 2155 09-23-22
118 WeegeeZV 8.2% 2159 09-23-22
119 Hipertails12 8.0% 2163 09-23-22
120 dShadow 7.7% 2170 09-23-22
121 Shanekilz 7.6% 2172 09-23-22
122 Therio 7.4% 2177 09-23-22
123 Aiko 7.3% 2179 09-23-22
123 ArthurVGCP 7.3% 2179 09-23-22
125 TommyeAsY 6.7% 2194 09-23-22
126 sonic29887 6.5% 2199 09-23-22
126 TheChaosEmeraIds 6.5% 2199 09-23-22
128 Calfd 6.4% 2201 09-23-22
129 FocusSight64 6.2% 2205 09-23-22
130 Chao_Fan 5.9% 2214 09-23-22
131 djmat 5.7% 2217 09-23-22
132 paulie9990 5.5% 2222 09-23-22
133 tal39h 5.5% 2223 09-23-22
134 HHNNBBHHN 5.3% 2227 09-23-22
135 Sogeking 5.3% 2228 09-23-22
136 ModifiedMonkee 5.2% 2230 09-23-22
137 Brian_pso 4.8% 2240 09-23-22
138 Chawkk 4.7% 2242 09-23-22
139 SpinDashMaster 4.5% 2245 09-23-22
140 MK 4.4% 2248 09-23-22
141 SilvertheAlmighty 4.2% 2252 09-23-22
142 Crispian 4.0% 2257 09-23-22
142 Yoshipuff 4.0% 2257 09-23-22
144 MastaToken 3.9% 2260 09-23-22
145 SpiritDragon1995 3.7% 2265 09-23-22
146 Tethys 3.6% 2266 09-23-22
147 Sonique Hedgehog 3.5% 2269 09-23-22
148 KinkyCadence 3.4% 2272 09-23-22
148 PsyBorg 3.4% 2272 09-23-22
150 FSSRandomvids 3.2% 2276 09-23-22
150 Mad Andy 3.2% 2276 09-23-22
152 koinu93 2.8% 2286 09-23-22
153 Rolken 2.7% 2289 09-23-22
154 JamminX42 2.6% 2290 09-23-22
154 Xia 2.6% 2290 09-23-22
156 andres430 2.2% 2299 09-23-22
157 shadowblast63 Player Banned 2.1% 2302 09-23-22
158 crazy1993 1.9% 2306 09-23-22
159 dabestgamer 1.9% 2307 09-23-22
160 Richied 1.8% 2310 09-23-22
161 Illidan 1.7% 2311 09-23-22
162 DanielTheFalcon 1.6% 2314 09-23-22
162 gamer1245 1.6% 2314 09-23-22
164 Iwannabelink 1.4% 2318 09-23-22
165 niscool 1.4% 2319 09-23-22
166 soniccoloursunleashed 1.3% 2321 09-23-22
167 oTaiIilLsS 1.3% 2322 09-23-22
168 ieatatsonic 1.0% 2329 09-23-22
169 Lil_Dude 0.8% 2334 09-23-22
170 LinksDarkArrows 0.7% 2335 09-23-22
171 Cbwade15 0.4% 2342 09-23-22
172 neaolas 0.3% 2345 09-23-22
173 BlankTH 0.2% 2348 09-23-22
174 Heroes_Hater 0.1% 2349 09-23-22
175 S-MS32X-S 0.0% 2351 09-23-22
176 KaM Mark MaK 0.0% 2353 09-23-22
176 MegabombBlade 0.0% 2353 09-23-22

This page is using the New Data Table System. [FUTURE]

Game ID: 3 | Category ID: 6
Hits: 6,635 | Hits This Month: 24 | DB Calls: 24 | Mem Usage: 825.46 KB | Time: 0.05s | Printable

The Sonic Center v3.9
Copyright 2003-2011 by The Sonic Center Team.